• Join FlightAware (Why Join?)
  • Login
  • US Flag 
03:44PM EDT


 

Airport Tracker/Info


-or-


 

Live Flight TrackerFlight Track Log ✈ VH-LFV ✈ 22-May-2013 ✈ YBCG / OOL - YBAF

Flight Track Log - Related Links

Times and Time Zones

All times are in EDT time to prevent confusion due to time zone crossing. See the VH-LFV flight status page for this flight to view local times or setup timezone preferences in your user account.

Time Position Orientation Groundspeed Altitude Reporting Facility
EDT Latitude Longitude Course Direction KTS MPH feet Rate Location/Type
12:31AM -28.0289 153.4325 360° North 3,500  Level Aus ATC (Calculated)
12:31AM -28.0289 153.4325 326° Northwest 3,500  Level Aus ATC (Calculated)
12:33AM -28.0238 153.4285 326° Northwest  Level FlightAware Approximate
12:34AM -28.0205 153.4260 326° Northwest  Level FlightAware Approximate
12:34AM -27.9781 153.4054 325° Northwest 3,500  Level Aus ATC (Calculated)
12:36AM -27.9729 153.4013 325° Northwest  Level FlightAware Approximate
12:37AM -27.9697 153.3987 325° Northwest  Level FlightAware Approximate
12:37AM -27.8892 153.3581 322° Northwest 3,500  Level Aus ATC (Calculated)
12:39AM -27.8841 153.3537 322° Northwest  Level FlightAware Approximate
12:40AM -27.8810 153.3509 322° Northwest  Level FlightAware Approximate
12:41AM -27.8779 153.3481 322° Northwest  Level FlightAware Approximate
12:42AM -27.8748 153.3454 322° Northwest  Level FlightAware Approximate
12:43AM -27.8717 153.3426 322° Northwest  Level FlightAware Approximate
12:44AM -27.8686 153.3398 322° Northwest  Level FlightAware Approximate
12:45AM -27.8655 153.3371 322° Northwest  Level FlightAware Approximate
12:46AM -27.8624 153.3344 322° Northwest  Level FlightAware Approximate
12:47AM -27.8593 153.3316 322° Northwest  Level FlightAware Approximate
12:48AM -27.8562 153.3289 322° Northwest  Level FlightAware Approximate
12:48AM -27.6222 153.2167 157° South 3,500  Level Aus ATC (Calculated)
12:49AM -27.8531 153.3261 322° Northwest  Level FlightAware Approximate
12:49AM -27.6222 153.2167 273° West 3,500  Level Aus ATC (Calculated)
12:51AM -27.6218 153.2095 274° West  Level FlightAware Approximate
12:51AM -27.6195 153.1667 274° West 1,500  Level Aus ATC (Calculated)
12:52AM -27.6167 153.1167 318° Northwest 1,500  Level Aus ATC (Calculated)
12:54AM -27.6126 153.1126 318° Northwest  Level FlightAware Approximate
12:55AM -27.6156 153.1156 138° Southeast  Level FlightAware Approximate
12:55AM -27.5935 153.0623 296° West  Level Aus ATC (Calculated)
12:57AM -27.5903 153.0549 274° West  Level Estimated
12:57AM -27.5703 153.0080 116° Southeast  Level Aus ATC (Calculated)
12:58AM -27.5886 153.0509 274° West  Level Estimated
12:59AM -27.5703 153.0081 274° West  Level Estimated
01:00AM -27.5703 153.0081 274° West  Level Estimated
01:01AM -27.5703 153.0081 274° West  Level Estimated